sensor_id;sensor_type;location;lat;lon;timestamp;P1;durP1;ratioP1;P2;durP2;ratioP2
69081;SDS011;68928;51.986;5.760;2023-04-03T00:01:05;1.73;;;0.95;;
69081;SDS011;68928;51.986;5.760;2023-04-03T00:03:31;1.80;;;1.33;;
69081;SDS011;68928;51.986;5.760;2023-04-03T00:05:58;3.28;;;1.50;;
69081;SDS011;68928;51.986;5.760;2023-04-03T00:08:24;11.02;;;1.50;;
69081;SDS011;68928;51.986;5.760;2023-04-03T00:10:50;3.17;;;1.60;;
69081;SDS011;68928;51.986;5.760;2023-04-03T00:13:16;2.40;;;1.25;;
69081;SDS011;68928;51.986;5.760;2023-04-03T00:15:42;1.30;;;1.20;;
69081;SDS011;68928;51.986;5.760;2023-04-03T00:18:08;2.15;;;1.40;;
69081;SDS011;68928;51.986;5.760;2023-04-03T00:20:35;3.17;;;1.50;;
69081;SDS011;68928;51.986;5.760;2023-04-03T00:23:02;3.47;;;1.45;;
69081;SDS011;68928;51.986;5.760;2023-04-03T00:25:28;2.25;;;1.30;;
69081;SDS011;68928;51.986;5.760;2023-04-03T00:27:54;4.43;;;1.25;;
69081;SDS011;68928;51.986;5.760;2023-04-03T00:30:20;2.42;;;1.25;;
69081;SDS011;68928;51.986;5.760;2023-04-03T00:32:47;2.80;;;1.35;;
69081;SDS011;68928;51.986;5.760;2023-04-03T00:35:13;3.10;;;1.63;;
69081;SDS011;68928;51.986;5.760;2023-04-03T00:37:43;2.25;;;1.50;;
69081;SDS011;68928;51.986;5.760;2023-04-03T00:40:09;3.22;;;1.30;;
69081;SDS011;68928;51.986;5.760;2023-04-03T00:42:36;3.70;;;1.50;;
69081;SDS011;68928;51.986;5.760;2023-04-03T00:47:28;2.20;;;1.30;;
69081;SDS011;68928;51.986;5.760;2023-04-03T00:49:55;2.10;;;1.33;;
69081;SDS011;68928;51.986;5.760;2023-04-03T00:52:22;3.33;;;1.50;;
69081;SDS011;68928;51.986;5.760;2023-04-03T00:54:50;5.38;;;1.45;;
69081;SDS011;68928;51.986;5.760;2023-04-03T00:57:18;3.45;;;1.30;;
69081;SDS011;68928;51.986;5.760;2023-04-03T00:59:46;3.22;;;1.40;;
69081;SDS011;68928;51.986;5.760;2023-04-03T01:02:14;2.65;;;1.20;;
69081;SDS011;68928;51.986;5.760;2023-04-03T01:04:41;4.03;;;1.50;;
69081;SDS011;68928;51.986;5.760;2023-04-03T01:07:09;2.63;;;1.40;;
69081;SDS011;68928;51.986;5.760;2023-04-03T01:09:35;4.82;;;1.58;;
69081;SDS011;68928;51.986;5.760;2023-04-03T01:12:18;2.60;;;1.48;;
69081;SDS011;68928;51.986;5.760;2023-04-03T01:14:45;7.20;;;1.50;;
69081;SDS011;68928;51.986;5.760;2023-04-03T01:20:01;1.95;;;1.38;;
69081;SDS011;68928;51.986;5.760;2023-04-03T01:22:30;5.00;;;1.60;;
69081;SDS011;68928;51.986;5.760;2023-04-03T01:24:58;1.80;;;1.35;;
69081;SDS011;68928;51.986;5.760;2023-04-03T01:27:24;2.45;;;1.50;;
69081;SDS011;68928;51.986;5.760;2023-04-03T01:29:50;2.85;;;1.48;;
69081;SDS011;68928;51.986;5.760;2023-04-03T01:32:17;2.75;;;1.30;;
69081;SDS011;68928;51.986;5.760;2023-04-03T01:34:43;3.30;;;1.60;;
69081;SDS011;68928;51.986;5.760;2023-04-03T01:37:09;4.50;;;1.58;;
69081;SDS011;68928;51.986;5.760;2023-04-03T01:39:35;2.95;;;1.38;;
69081;SDS011;68928;51.986;5.760;2023-04-03T01:42:01;2.65;;;1.67;;
69081;SDS011;68928;51.986;5.760;2023-04-03T01:44:28;4.55;;;2.15;;
69081;SDS011;68928;51.986;5.760;2023-04-03T01:46:55;2.47;;;1.38;;
69081;SDS011;68928;51.986;5.760;2023-04-03T01:49:21;3.78;;;1.73;;
69081;SDS011;68928;51.986;5.760;2023-04-03T01:51:47;2.45;;;1.40;;
69081;SDS011;68928;51.986;5.760;2023-04-03T01:54:13;3.75;;;1.27;;
69081;SDS011;68928;51.986;5.760;2023-04-03T01:56:39;3.65;;;1.40;;
69081;SDS011;68928;51.986;5.760;2023-04-03T01:59:05;2.75;;;1.55;;
69081;SDS011;68928;51.986;5.760;2023-04-03T02:01:31;3.03;;;1.40;;
69081;SDS011;68928;51.986;5.760;2023-04-03T02:03:57;3.83;;;1.73;;
69081;SDS011;68928;51.986;5.760;2023-04-03T02:06:23;4.28;;;1.35;;
69081;SDS011;68928;51.986;5.760;2023-04-03T02:08:50;4.80;;;1.40;;
69081;SDS011;68928;51.986;5.760;2023-04-03T02:11:16;4.28;;;1.50;;
69081;SDS011;68928;51.986;5.760;2023-04-03T02:13:42;3.58;;;1.38;;
69081;SDS011;68928;51.986;5.760;2023-04-03T02:16:08;2.72;;;1.42;;
69081;SDS011;68928;51.986;5.760;2023-04-03T02:18:36;1.95;;;1.30;;
69081;SDS011;68928;51.986;5.760;2023-04-03T02:21:02;2.20;;;1.55;;
69081;SDS011;68928;51.986;5.760;2023-04-03T02:23:28;4.72;;;1.38;;
69081;SDS011;68928;51.986;5.760;2023-04-03T02:26:02;2.38;;;1.27;;
69081;SDS011;68928;51.986;5.760;2023-04-03T02:28:28;3.15;;;1.58;;
69081;SDS011;68928;51.986;5.760;2023-04-03T02:30:54;7.88;;;1.45;;
69081;SDS011;68928;51.986;5.760;2023-04-03T02:33:20;5.65;;;1.63;;
69081;SDS011;68928;51.986;5.760;2023-04-03T02:35:46;2.50;;;1.30;;
69081;SDS011;68928;51.986;5.760;2023-04-03T02:38:18;2.53;;;1.60;;
69081;SDS011;68928;51.986;5.760;2023-04-03T02:40:44;4.53;;;1.40;;
69081;SDS011;68928;51.986;5.760;2023-04-03T02:43:10;2.50;;;1.50;;
69081;SDS011;68928;51.986;5.760;2023-04-03T02:45:36;3.35;;;1.60;;
69081;SDS011;68928;51.986;5.760;2023-04-03T02:48:02;3.25;;;1.48;;
69081;SDS011;68928;51.986;5.760;2023-04-03T02:50:28;5.97;;;1.52;;
69081;SDS011;68928;51.986;5.760;2023-04-03T02:52:54;3.65;;;1.63;;
69081;SDS011;68928;51.986;5.760;2023-04-03T02:55:20;4.47;;;1.70;;
69081;SDS011;68928;51.986;5.760;2023-04-03T02:57:46;3.75;;;1.58;;
69081;SDS011;68928;51.986;5.760;2023-04-03T03:00:12;4.38;;;1.67;;
69081;SDS011;68928;51.986;5.760;2023-04-03T03:02:39;5.78;;;1.60;;
69081;SDS011;68928;51.986;5.760;2023-04-03T03:05:05;5.82;;;1.90;;
69081;SDS011;68928;51.986;5.760;2023-04-03T03:07:32;4.63;;;1.52;;
69081;SDS011;68928;51.986;5.760;2023-04-03T03:09:58;4.13;;;1.75;;
69081;SDS011;68928;51.986;5.760;2023-04-03T03:12:24;6.10;;;1.80;;
69081;SDS011;68928;51.986;5.760;2023-04-03T03:14:50;3.28;;;1.67;;
69081;SDS011;68928;51.986;5.760;2023-04-03T03:17:16;3.58;;;1.60;;
69081;SDS011;68928;51.986;5.760;2023-04-03T03:19:42;5.38;;;1.58;;
69081;SDS011;68928;51.986;5.760;2023-04-03T03:22:10;5.93;;;1.73;;
69081;SDS011;68928;51.986;5.760;2023-04-03T03:24:36;5.15;;;1.92;;
69081;SDS011;68928;51.986;5.760;2023-04-03T03:27:02;2.08;;;1.40;;
69081;SDS011;68928;51.986;5.760;2023-04-03T03:29:28;5.47;;;1.63;;
69081;SDS011;68928;51.986;5.760;2023-04-03T03:31:54;2.90;;;1.92;;
69081;SDS011;68928;51.986;5.760;2023-04-03T03:34:20;11.80;;;1.80;;
69081;SDS011;68928;51.986;5.760;2023-04-03T03:36:46;3.38;;;1.70;;
69081;SDS011;68928;51.986;5.760;2023-04-03T03:39:12;3.92;;;1.70;;
69081;SDS011;68928;51.986;5.760;2023-04-03T03:41:38;3.97;;;1.63;;
69081;SDS011;68928;51.986;5.760;2023-04-03T03:44:04;5.10;;;1.80;;
69081;SDS011;68928;51.986;5.760;2023-04-03T03:46:30;4.60;;;1.50;;
69081;SDS011;68928;51.986;5.760;2023-04-03T03:48:56;3.50;;;1.83;;
69081;SDS011;68928;51.986;5.760;2023-04-03T03:51:22;4.10;;;1.65;;
69081;SDS011;68928;51.986;5.760;2023-04-03T03:53:48;3.92;;;1.80;;
69081;SDS011;68928;51.986;5.760;2023-04-03T03:56:14;2.95;;;1.60;;
69081;SDS011;68928;51.986;5.760;2023-04-03T03:58:40;4.28;;;1.63;;
69081;SDS011;68928;51.986;5.760;2023-04-03T04:01:07;3.92;;;1.67;;
69081;SDS011;68928;51.986;5.760;2023-04-03T04:03:33;2.42;;;1.40;;
69081;SDS011;68928;51.986;5.760;2023-04-03T04:05:59;3.42;;;1.85;;
69081;SDS011;68928;51.986;5.760;2023-04-03T04:08:25;4.28;;;1.77;;
69081;SDS011;68928;51.986;5.760;2023-04-03T04:10:51;5.95;;;1.95;;
69081;SDS011;68928;51.986;5.760;2023-04-03T04:13:17;3.20;;;1.75;;
69081;SDS011;68928;51.986;5.760;2023-04-03T04:15:43;4.18;;;1.52;;
69081;SDS011;68928;51.986;5.760;2023-04-03T04:18:09;4.15;;;1.58;;
69081;SDS011;68928;51.986;5.760;2023-04-03T04:20:35;4.72;;;1.92;;
69081;SDS011;68928;51.986;5.760;2023-04-03T04:23:01;4.60;;;1.88;;
69081;SDS011;68928;51.986;5.760;2023-04-03T04:25:27;5.97;;;2.00;;
69081;SDS011;68928;51.986;5.760;2023-04-03T04:27:53;5.07;;;2.00;;
69081;SDS011;68928;51.986;5.760;2023-04-03T04:30:19;5.25;;;2.22;;
69081;SDS011;68928;51.986;5.760;2023-04-03T04:32:45;4.10;;;1.90;;
69081;SDS011;68928;51.986;5.760;2023-04-03T04:35:11;3.30;;;1.65;;
69081;SDS011;68928;51.986;5.760;2023-04-03T04:37:37;4.03;;;1.70;;
69081;SDS011;68928;51.986;5.760;2023-04-03T04:40:04;6.28;;;2.03;;
69081;SDS011;68928;51.986;5.760;2023-04-03T04:42:30;5.38;;;1.75;;
69081;SDS011;68928;51.986;5.760;2023-04-03T04:44:56;6.15;;;1.83;;
69081;SDS011;68928;51.986;5.760;2023-04-03T04:47:22;6.05;;;1.98;;
69081;SDS011;68928;51.986;5.760;2023-04-03T04:49:48;5.32;;;1.70;;
69081;SDS011;68928;51.986;5.760;2023-04-03T04:52:14;4.63;;;1.88;;
69081;SDS011;68928;51.986;5.760;2023-04-03T04:54:40;3.50;;;1.75;;
69081;SDS011;68928;51.986;5.760;2023-04-03T04:57:06;6.43;;;1.70;;
69081;SDS011;68928;51.986;5.760;2023-04-03T04:59:32;5.90;;;2.03;;
69081;SDS011;68928;51.986;5.760;2023-04-03T05:01:58;4.75;;;2.00;;
69081;SDS011;68928;51.986;5.760;2023-04-03T05:04:24;3.38;;;1.73;;
69081;SDS011;68928;51.986;5.760;2023-04-03T05:06:50;5.88;;;1.88;;
69081;SDS011;68928;51.986;5.760;2023-04-03T05:09:16;4.35;;;2.00;;
69081;SDS011;68928;51.986;5.760;2023-04-03T05:11:43;5.15;;;1.80;;
69081;SDS011;68928;51.986;5.760;2023-04-03T05:14:09;4.53;;;2.05;;
69081;SDS011;68928;51.986;5.760;2023-04-03T05:16:35;5.03;;;2.00;;
69081;SDS011;68928;51.986;5.760;2023-04-03T05:19:01;5.30;;;1.95;;
69081;SDS011;68928;51.986;5.760;2023-04-03T05:21:27;6.50;;;2.03;;
69081;SDS011;68928;51.986;5.760;2023-04-03T05:23:56;6.18;;;1.98;;
69081;SDS011;68928;51.986;5.760;2023-04-03T05:26:22;7.38;;;1.90;;
69081;SDS011;68928;51.986;5.760;2023-04-03T05:28:48;7.30;;;2.10;;
69081;SDS011;68928;51.986;5.760;2023-04-03T05:31:14;4.70;;;2.05;;
69081;SDS011;68928;51.986;5.760;2023-04-03T05:33:40;6.05;;;2.20;;
69081;SDS011;68928;51.986;5.760;2023-04-03T05:36:06;5.93;;;2.15;;
69081;SDS011;68928;51.986;5.760;2023-04-03T05:38:33;4.97;;;1.75;;
69081;SDS011;68928;51.986;5.760;2023-04-03T05:40:58;4.00;;;1.92;;
69081;SDS011;68928;51.986;5.760;2023-04-03T05:43:25;6.60;;;2.05;;
69081;SDS011;68928;51.986;5.760;2023-04-03T05:45:51;7.22;;;2.05;;
69081;SDS011;68928;51.986;5.760;2023-04-03T05:48:17;6.68;;;2.00;;
69081;SDS011;68928;51.986;5.760;2023-04-03T05:50:43;3.83;;;2.03;;
69081;SDS011;68928;51.986;5.760;2023-04-03T05:53:15;3.33;;;1.90;;
69081;SDS011;68928;51.986;5.760;2023-04-03T05:55:43;5.35;;;2.20;;
69081;SDS011;68928;51.986;5.760;2023-04-03T05:58:10;6.32;;;2.05;;
69081;SDS011;68928;51.986;5.760;2023-04-03T06:00:36;11.07;;;2.22;;
69081;SDS011;68928;51.986;5.760;2023-04-03T06:03:01;6.72;;;2.20;;
69081;SDS011;68928;51.986;5.760;2023-04-03T06:05:28;10.07;;;1.73;;
69081;SDS011;68928;51.986;5.760;2023-04-03T06:07:54;5.80;;;1.95;;
69081;SDS011;68928;51.986;5.760;2023-04-03T06:10:20;6.22;;;2.15;;
69081;SDS011;68928;51.986;5.760;2023-04-03T06:12:46;4.53;;;1.83;;
69081;SDS011;68928;51.986;5.760;2023-04-03T06:15:12;4.03;;;1.75;;
69081;SDS011;68928;51.986;5.760;2023-04-03T06:17:38;3.17;;;1.92;;
69081;SDS011;68928;51.986;5.760;2023-04-03T06:20:04;6.18;;;1.98;;
69081;SDS011;68928;51.986;5.760;2023-04-03T06:22:31;6.95;;;2.00;;
69081;SDS011;68928;51.986;5.760;2023-04-03T06:24:57;6.85;;;2.00;;
69081;SDS011;68928;51.986;5.760;2023-04-03T06:27:23;2.75;;;1.48;;
69081;SDS011;68928;51.986;5.760;2023-04-03T06:29:49;5.07;;;1.70;;
69081;SDS011;68928;51.986;5.760;2023-04-03T06:32:15;6.70;;;1.70;;
69081;SDS011;68928;51.986;5.760;2023-04-03T06:34:41;7.25;;;2.33;;
69081;SDS011;68928;51.986;5.760;2023-04-03T06:37:26;6.00;;;2.03;;
69081;SDS011;68928;51.986;5.760;2023-04-03T06:39:53;7.60;;;1.90;;
69081;SDS011;68928;51.986;5.760;2023-04-03T06:42:20;7.97;;;1.67;;
69081;SDS011;68928;51.986;5.760;2023-04-03T06:44:46;3.80;;;1.60;;
69081;SDS011;68928;51.986;5.760;2023-04-03T06:47:13;5.07;;;1.58;;
69081;SDS011;68928;51.986;5.760;2023-04-03T06:49:39;6.82;;;1.77;;
69081;SDS011;68928;51.986;5.760;2023-04-03T06:52:06;4.00;;;1.50;;
69081;SDS011;68928;51.986;5.760;2023-04-03T06:54:32;4.50;;;1.90;;
69081;SDS011;68928;51.986;5.760;2023-04-03T06:56:58;6.55;;;1.67;;
69081;SDS011;68928;51.986;5.760;2023-04-03T06:59:24;4.15;;;1.52;;
69081;SDS011;68928;51.986;5.760;2023-04-03T07:01:50;5.47;;;1.90;;
69081;SDS011;68928;51.986;5.760;2023-04-03T07:04:17;7.07;;;2.00;;
69081;SDS011;68928;51.986;5.760;2023-04-03T07:06:45;4.82;;;1.65;;
69081;SDS011;68928;51.986;5.760;2023-04-03T07:09:11;4.82;;;1.70;;
69081;SDS011;68928;51.986;5.760;2023-04-03T07:11:37;7.25;;;1.52;;
69081;SDS011;68928;51.986;5.760;2023-04-03T07:14:03;4.40;;;1.58;;
69081;SDS011;68928;51.986;5.760;2023-04-03T07:16:30;5.88;;;1.70;;
69081;SDS011;68928;51.986;5.760;2023-04-03T07:18:56;4.55;;;1.50;;
69081;SDS011;68928;51.986;5.760;2023-04-03T07:21:23;5.72;;;1.58;;
69081;SDS011;68928;51.986;5.760;2023-04-03T07:23:49;5.93;;;1.55;;
69081;SDS011;68928;51.986;5.760;2023-04-03T07:26:15;4.53;;;1.50;;
69081;SDS011;68928;51.986;5.760;2023-04-03T07:28:41;3.30;;;1.40;;
69081;SDS011;68928;51.986;5.760;2023-04-03T07:31:11;6.03;;;1.70;;
69081;SDS011;68928;51.986;5.760;2023-04-03T07:33:38;5.68;;;1.70;;
69081;SDS011;68928;51.986;5.760;2023-04-03T07:36:05;7.40;;;1.75;;
69081;SDS011;68928;51.986;5.760;2023-04-03T07:38:35;6.50;;;1.40;;
69081;SDS011;68928;51.986;5.760;2023-04-03T07:41:01;2.85;;;1.10;;
69081;SDS011;68928;51.986;5.760;2023-04-03T07:43:28;5.50;;;1.70;;
69081;SDS011;68928;51.986;5.760;2023-04-03T07:45:57;6.75;;;1.50;;
69081;SDS011;68928;51.986;5.760;2023-04-03T07:48:24;4.30;;;1.48;;
69081;SDS011;68928;51.986;5.760;2023-04-03T07:50:52;3.85;;;1.20;;
69081;SDS011;68928;51.986;5.760;2023-04-03T07:53:19;6.20;;;1.63;;
69081;SDS011;68928;51.986;5.760;2023-04-03T07:55:46;2.67;;;1.10;;
69081;SDS011;68928;51.986;5.760;2023-04-03T07:58:14;3.63;;;1.35;;
69081;SDS011;68928;51.986;5.760;2023-04-03T08:00:40;3.67;;;1.30;;
69081;SDS011;68928;51.986;5.760;2023-04-03T08:03:07;8.00;;;1.23;;
69081;SDS011;68928;51.986;5.760;2023-04-03T08:05:37;5.03;;;1.20;;
69081;SDS011;68928;51.986;5.760;2023-04-03T08:08:03;6.03;;;1.30;;
69081;SDS011;68928;51.986;5.760;2023-04-03T08:10:29;3.90;;;1.15;;
69081;SDS011;68928;51.986;5.760;2023-04-03T08:12:56;2.80;;;1.10;;
69081;SDS011;68928;51.986;5.760;2023-04-03T08:15:22;3.38;;;1.17;;
69081;SDS011;68928;51.986;5.760;2023-04-03T08:17:48;2.60;;;1.30;;
69081;SDS011;68928;51.986;5.760;2023-04-03T08:20:14;3.53;;;1.05;;
69081;SDS011;68928;51.986;5.760;2023-04-03T08:22:40;3.28;;;1.00;;
69081;SDS011;68928;51.986;5.760;2023-04-03T08:25:06;3.55;;;0.90;;
69081;SDS011;68928;51.986;5.760;2023-04-03T08:27:32;2.58;;;0.80;;
69081;SDS011;68928;51.986;5.760;2023-04-03T08:29:58;1.10;;;0.90;;
69081;SDS011;68928;51.986;5.760;2023-04-03T08:32:24;2.30;;;0.80;;
69081;SDS011;68928;51.986;5.760;2023-04-03T08:34:50;4.07;;;1.48;;
69081;SDS011;68928;51.986;5.760;2023-04-03T08:37:16;2.50;;;0.77;;
69081;SDS011;68928;51.986;5.760;2023-04-03T08:39:44;1.08;;;0.70;;
69081;SDS011;68928;51.986;5.760;2023-04-03T08:42:19;4.22;;;0.73;;
69081;SDS011;68928;51.986;5.760;2023-04-03T08:45:08;4.20;;;0.73;;
69081;SDS011;68928;51.986;5.760;2023-04-03T08:50:03;0.70;;;0.60;;
69081;SDS011;68928;51.986;5.760;2023-04-03T08:52:35;2.97;;;0.70;;
69081;SDS011;68928;51.986;5.760;2023-04-03T08:55:03;2.33;;;0.60;;
69081;SDS011;68928;51.986;5.760;2023-04-03T08:57:37;1.05;;;0.70;;
69081;SDS011;68928;51.986;5.760;2023-04-03T09:02:41;2.92;;;0.60;;
69081;SDS011;68928;51.986;5.760;2023-04-03T09:05:11;1.65;;;0.50;;
69081;SDS011;68928;51.986;5.760;2023-04-03T09:07:39;1.48;;;0.50;;
69081;SDS011;68928;51.986;5.760;2023-04-03T09:10:10;5.00;;;0.50;;
69081;SDS011;68928;51.986;5.760;2023-04-03T09:12:39;0.63;;;0.50;;
69081;SDS011;69029;51.986;5.760;2023-04-03T09:15:19;0.80;;;0.50;;
69081;SDS011;69029;51.986;5.760;2023-04-03T09:20:34;0.55;;;0.32;;
69081;SDS011;69029;51.986;5.760;2023-04-03T09:23:09;0.40;;;0.40;;
69081;SDS011;69029;51.986;5.760;2023-04-03T09:25:39;1.20;;;0.50;;
69081;SDS011;69029;51.986;5.760;2023-04-03T09:28:06;1.02;;;0.30;;
69081;SDS011;69029;51.986;5.760;2023-04-03T09:30:34;0.68;;;0.38;;
69081;SDS011;69029;51.986;5.760;2023-04-03T09:33:01;0.95;;;0.43;;
69081;SDS011;69029;51.986;5.760;2023-04-03T09:35:28;0.50;;;0.50;;
69081;SDS011;69029;51.986;5.760;2023-04-03T09:40:38;0.95;;;0.40;;
69081;SDS011;69029;51.986;5.760;2023-04-03T09:43:26;0.80;;;0.40;;
69081;SDS011;69029;51.986;5.760;2023-04-03T09:45:51;0.57;;;0.40;;
69081;SDS011;69029;51.986;5.760;2023-04-03T09:48:19;1.42;;;0.60;;
69081;SDS011;69029;51.986;5.760;2023-04-03T09:56:27;1.98;;;0.60;;
69081;SDS011;69029;51.986;5.760;2023-04-03T10:01:34;0.93;;;0.45;;
69081;SDS011;69029;51.986;5.760;2023-04-03T10:04:03;1.55;;;0.40;;
69081;SDS011;69029;51.986;5.760;2023-04-03T10:06:31;1.42;;;0.50;;
69081;SDS011;69029;51.986;5.760;2023-04-03T10:09:04;1.02;;;0.40;;
69081;SDS011;69029;51.986;5.760;2023-04-03T10:11:30;1.98;;;0.45;;
69081;SDS011;69029;51.986;5.760;2023-04-03T10:13:57;0.82;;;0.40;;
69081;SDS011;69029;51.986;5.760;2023-04-03T10:16:26;1.60;;;0.70;;
69081;SDS011;69029;51.986;5.760;2023-04-03T10:24:10;0.85;;;0.40;;
69081;SDS011;69029;51.986;5.760;2023-04-03T10:26:39;2.17;;;0.50;;
69081;SDS011;69029;51.986;5.760;2023-04-03T10:29:13;1.80;;;0.70;;
69081;SDS011;69029;51.986;5.760;2023-04-03T10:31:53;1.15;;;0.60;;
69081;SDS011;69029;51.986;5.760;2023-04-03T10:34:21;1.65;;;0.77;;
69081;SDS011;69029;51.986;5.760;2023-04-03T10:36:52;2.45;;;0.60;;
69081;SDS011;69029;51.986;5.760;2023-04-03T10:42:14;1.33;;;0.73;;
69081;SDS011;69029;51.986;5.760;2023-04-03T10:44:58;1.02;;;0.63;;
69081;SDS011;69029;51.986;5.760;2023-04-03T10:55:07;2.08;;;0.70;;
69081;SDS011;69029;51.986;5.760;2023-04-03T10:57:40;1.48;;;0.70;;
69081;SDS011;69029;51.986;5.760;2023-04-03T11:00:14;3.42;;;0.70;;
69081;SDS011;69029;51.986;5.760;2023-04-03T11:02:53;1.67;;;0.70;;
69081;SDS011;69029;51.986;5.760;2023-04-03T11:08:07;3.80;;;0.90;;
69081;SDS011;69029;51.986;5.760;2023-04-03T11:10:43;2.33;;;0.90;;
69081;SDS011;69029;51.986;5.760;2023-04-03T11:13:14;1.65;;;0.80;;
69081;SDS011;69029;51.986;5.760;2023-04-03T11:15:42;3.28;;;0.80;;
69081;SDS011;69029;51.986;5.760;2023-04-03T11:18:13;1.48;;;0.80;;
69081;SDS011;69029;51.986;5.760;2023-04-03T11:20:57;1.52;;;0.75;;
69081;SDS011;69029;51.986;5.760;2023-04-03T11:23:39;1.20;;;0.75;;
69081;SDS011;69029;51.986;5.760;2023-04-03T11:26:12;1.40;;;0.80;;
69081;SDS011;69029;51.986;5.760;2023-04-03T11:28:43;1.60;;;0.90;;
69081;SDS011;69029;51.986;5.760;2023-04-03T11:31:16;1.35;;;0.70;;
69081;SDS011;69029;51.986;5.760;2023-04-03T11:36:27;1.42;;;0.82;;
69081;SDS011;69029;51.986;5.760;2023-04-03T11:38:58;3.30;;;1.00;;
69081;SDS011;69029;51.986;5.760;2023-04-03T11:41:32;1.55;;;1.00;;
69081;SDS011;69029;51.986;5.760;2023-04-03T11:47:09;1.63;;;0.70;;
69081;SDS011;69029;51.986;5.760;2023-04-03T11:52:55;12.55;;;0.80;;
69081;SDS011;69029;51.986;5.760;2023-04-03T12:16:07;1.60;;;0.70;;
69081;SDS011;69029;51.986;5.760;2023-04-03T12:19:03;1.90;;;0.80;;
69081;SDS011;69029;51.986;5.760;2023-04-03T12:24:25;2.58;;;0.95;;
69081;SDS011;69029;51.986;5.760;2023-04-03T12:29:51;3.15;;;0.70;;
69081;SDS011;69029;51.986;5.760;2023-04-03T12:43:45;1.37;;;0.70;;
69081;SDS011;69029;51.986;5.760;2023-04-03T12:46:23;2.50;;;0.85;;
69081;SDS011;69029;51.986;5.760;2023-04-03T12:48:53;1.38;;;0.73;;
69081;SDS011;69029;51.986;5.760;2023-04-03T12:54:00;1.88;;;0.90;;
69081;SDS011;69029;51.986;5.760;2023-04-03T12:59:13;2.53;;;0.70;;
69081;SDS011;69029;51.986;5.760;2023-04-03T13:01:39;1.92;;;0.95;;
69081;SDS011;69029;51.986;5.760;2023-04-03T13:04:05;2.28;;;0.90;;
69081;SDS011;69029;51.986;5.760;2023-04-03T13:06:32;1.45;;;0.63;;
69081;SDS011;69029;51.986;5.760;2023-04-03T13:09:04;2.67;;;0.90;;
69081;SDS011;69029;51.986;5.760;2023-04-03T13:11:42;1.35;;;0.85;;
69081;SDS011;69029;51.986;5.760;2023-04-03T13:14:17;3.58;;;0.80;;
69081;SDS011;69029;51.986;5.760;2023-04-03T13:16:54;1.33;;;0.75;;
69081;SDS011;69029;51.986;5.760;2023-04-03T13:19:22;2.17;;;0.90;;
69081;SDS011;69029;51.986;5.760;2023-04-03T13:21:49;1.33;;;0.88;;
69081;SDS011;69029;51.986;5.760;2023-04-03T13:24:30;3.05;;;1.13;;
69081;SDS011;69029;51.986;5.760;2023-04-03T13:26:59;1.38;;;0.93;;
69081;SDS011;69029;51.986;5.760;2023-04-03T13:29:27;3.05;;;0.88;;
69081;SDS011;69029;51.986;5.760;2023-04-03T13:31:55;2.47;;;1.00;;
69081;SDS011;69029;51.986;5.760;2023-04-03T13:34:22;3.17;;;0.85;;
69081;SDS011;69029;51.986;5.760;2023-04-03T13:41:47;1.52;;;0.85;;
69081;SDS011;69029;51.986;5.760;2023-04-03T13:44:26;1.60;;;0.70;;
69081;SDS011;69029;51.986;5.760;2023-04-03T13:46:55;1.83;;;0.90;;
69081;SDS011;69029;51.986;5.760;2023-04-03T13:49:28;1.13;;;0.80;;
69081;SDS011;69029;51.986;5.760;2023-04-03T13:51:58;1.17;;;0.70;;
69081;SDS011;69029;51.986;5.760;2023-04-03T13:54:29;2.63;;;1.10;;
69081;SDS011;69029;51.986;5.760;2023-04-03T13:56:58;1.65;;;0.90;;
69081;SDS011;69029;51.986;5.760;2023-04-03T13:59:34;2.40;;;0.90;;
69081;SDS011;69029;51.986;5.760;2023-04-03T14:04:44;2.80;;;0.90;;
69081;SDS011;69029;51.986;5.760;2023-04-03T14:07:11;1.77;;;1.00;;
69081;SDS011;69029;51.986;5.760;2023-04-03T14:09:37;1.55;;;1.00;;
69081;SDS011;69029;51.986;5.760;2023-04-03T14:12:11;1.48;;;0.90;;
69081;SDS011;69029;51.986;5.760;2023-04-03T14:14:40;1.85;;;0.82;;
69081;SDS011;69029;51.986;5.760;2023-04-03T14:17:13;2.55;;;1.33;;
69081;SDS011;69029;51.986;5.760;2023-04-03T14:19:41;1.30;;;0.80;;
69081;SDS011;69029;51.986;5.760;2023-04-03T14:22:13;3.78;;;1.00;;
69081;SDS011;69029;51.986;5.760;2023-04-03T14:24:47;2.28;;;1.02;;
69081;SDS011;69029;51.986;5.760;2023-04-03T14:27:36;1.27;;;0.80;;
69081;SDS011;69029;51.986;5.760;2023-04-03T14:30:05;3.83;;;1.00;;
69081;SDS011;69029;51.986;5.760;2023-04-03T14:32:34;2.63;;;1.17;;
69081;SDS011;69029;51.986;5.760;2023-04-03T14:35:00;1.80;;;1.00;;
69081;SDS011;69029;51.986;5.760;2023-04-03T14:37:27;2.65;;;1.08;;
69081;SDS011;69029;51.986;5.760;2023-04-03T14:39:55;3.35;;;0.93;;
69081;SDS011;69029;51.986;5.760;2023-04-03T14:42:26;2.42;;;1.10;;
69081;SDS011;69029;51.986;5.760;2023-04-03T14:44:55;2.65;;;1.00;;
69081;SDS011;69029;51.986;5.760;2023-04-03T14:47:26;2.85;;;1.40;;
69081;SDS011;69029;51.986;5.760;2023-04-03T14:49:53;2.47;;;1.00;;
69081;SDS011;69029;51.986;5.760;2023-04-03T14:52:20;2.20;;;1.10;;
69081;SDS011;69029;51.986;5.760;2023-04-03T14:54:53;2.90;;;1.17;;
69081;SDS011;69029;51.986;5.760;2023-04-03T14:57:19;2.08;;;1.10;;
69081;SDS011;69029;51.986;5.760;2023-04-03T14:59:48;4.43;;;1.08;;
69081;SDS011;69029;51.986;5.760;2023-04-03T15:04:54;2.38;;;1.02;;
69081;SDS011;69029;51.986;5.760;2023-04-03T15:07:20;1.75;;;1.10;;
69081;SDS011;69029;51.986;5.760;2023-04-03T15:09:46;2.50;;;1.20;;
69081;SDS011;69029;51.986;5.760;2023-04-03T15:12:12;1.95;;;1.10;;
69081;SDS011;69029;51.986;5.760;2023-04-03T15:14:38;2.85;;;1.15;;
69081;SDS011;69029;51.986;5.760;2023-04-03T15:17:04;2.67;;;1.20;;
69081;SDS011;69029;51.986;5.760;2023-04-03T15:19:32;2.75;;;1.20;;
69081;SDS011;69029;51.986;5.760;2023-04-03T15:22:02;6.55;;;1.60;;
69081;SDS011;69029;51.986;5.760;2023-04-03T15:24:28;6.10;;;1.17;;
69081;SDS011;69029;51.986;5.760;2023-04-03T15:26:55;2.35;;;1.30;;
69081;SDS011;69029;51.986;5.760;2023-04-03T15:29:20;3.45;;;1.27;;
69081;SDS011;69029;51.986;5.760;2023-04-03T15:31:46;1.70;;;1.20;;
69081;SDS011;69029;51.986;5.760;2023-04-03T15:34:14;2.47;;;1.17;;
69081;SDS011;69029;51.986;5.760;2023-04-03T15:36:41;3.33;;;1.10;;
69081;SDS011;69029;51.986;5.760;2023-04-03T15:39:06;2.85;;;1.23;;
69081;SDS011;69029;51.986;5.760;2023-04-03T15:41:32;3.95;;;1.13;;
69081;SDS011;69029;51.986;5.760;2023-04-03T15:43:57;2.00;;;1.10;;
69081;SDS011;69029;51.986;5.760;2023-04-03T15:46:23;3.33;;;1.10;;
69081;SDS011;69029;51.986;5.760;2023-04-03T15:48:49;4.60;;;1.40;;
69081;SDS011;69029;51.986;5.760;2023-04-03T15:51:14;3.63;;;1.10;;
69081;SDS011;69029;51.986;5.760;2023-04-03T15:53:40;4.47;;;1.40;;
69081;SDS011;69029;51.986;5.760;2023-04-03T15:56:07;2.35;;;1.20;;
69081;SDS011;69029;51.986;5.760;2023-04-03T15:58:34;4.45;;;1.30;;
69081;SDS011;69029;51.986;5.760;2023-04-03T16:01:00;3.85;;;1.20;;
69081;SDS011;69029;51.986;5.760;2023-04-03T16:03:26;3.10;;;1.25;;
69081;SDS011;69029;51.986;5.760;2023-04-03T16:05:52;3.97;;;1.40;;
69081;SDS011;69029;51.986;5.760;2023-04-03T16:08:18;3.63;;;1.30;;
69081;SDS011;69029;51.986;5.760;2023-04-03T16:10:45;2.65;;;1.05;;
69081;SDS011;69029;51.986;5.760;2023-04-03T16:13:11;6.18;;;1.45;;
69081;SDS011;69029;51.986;5.760;2023-04-03T16:15:37;2.92;;;1.23;;
69081;SDS011;69029;51.986;5.760;2023-04-03T16:18:04;3.00;;;1.17;;
69081;SDS011;69029;51.986;5.760;2023-04-03T16:20:30;2.42;;;1.30;;
69081;SDS011;69029;51.986;5.760;2023-04-03T16:22:58;3.95;;;1.65;;
69081;SDS011;69029;51.986;5.760;2023-04-03T16:25:25;3.63;;;1.25;;
69081;SDS011;69029;51.986;5.760;2023-04-03T16:27:52;3.55;;;1.33;;
69081;SDS011;69029;51.986;5.760;2023-04-03T16:30:18;1.63;;;1.10;;
69081;SDS011;69029;51.986;5.760;2023-04-03T16:32:44;4.78;;;1.30;;
69081;SDS011;69029;51.986;5.760;2023-04-03T16:35:10;3.05;;;1.30;;
69081;SDS011;69029;51.986;5.760;2023-04-03T16:37:36;4.88;;;1.63;;